sensor_id;sensor_type;location;lat;lon;timestamp;P1;durP1;ratioP1;P2;durP2;ratioP2
18726;SDS011;9492;51.888;5.186;2023-06-10T00:02:22;6.67;;;5.40;;
18726;SDS011;9492;51.888;5.186;2023-06-10T00:04:48;6.47;;;5.87;;
18726;SDS011;9492;51.888;5.186;2023-06-10T00:07:15;7.37;;;6.33;;
18726;SDS011;9492;51.888;5.186;2023-06-10T00:09:41;6.57;;;5.97;;
18726;SDS011;9492;51.888;5.186;2023-06-10T00:12:07;6.60;;;6.00;;
18726;SDS011;9492;51.888;5.186;2023-06-10T00:14:38;6.20;;;5.60;;
18726;SDS011;9492;51.888;5.186;2023-06-10T00:17:04;6.53;;;5.93;;
18726;SDS011;9492;51.888;5.186;2023-06-10T00:19:34;6.83;;;6.10;;
18726;SDS011;9492;51.888;5.186;2023-06-10T00:22:01;6.77;;;6.10;;
18726;SDS011;9492;51.888;5.186;2023-06-10T00:24:28;7.27;;;5.87;;
18726;SDS011;9492;51.888;5.186;2023-06-10T00:26:54;5.87;;;5.37;;
18726;SDS011;9492;51.888;5.186;2023-06-10T00:29:20;6.47;;;5.70;;
18726;SDS011;9492;51.888;5.186;2023-06-10T00:31:46;6.63;;;5.93;;
18726;SDS011;9492;51.888;5.186;2023-06-10T00:34:13;7.10;;;6.40;;
18726;SDS011;9492;51.888;5.186;2023-06-10T00:36:39;8.63;;;6.83;;
18726;SDS011;9492;51.888;5.186;2023-06-10T00:39:06;8.50;;;6.97;;
18726;SDS011;9492;51.888;5.186;2023-06-10T00:41:32;7.33;;;6.57;;
18726;SDS011;9492;51.888;5.186;2023-06-10T00:43:59;7.47;;;6.77;;
18726;SDS011;9492;51.888;5.186;2023-06-10T00:46:28;9.77;;;6.87;;
18726;SDS011;9492;51.888;5.186;2023-06-10T00:48:57;7.20;;;6.43;;
18726;SDS011;9492;51.888;5.186;2023-06-10T00:51:23;7.33;;;6.63;;
18726;SDS011;9492;51.888;5.186;2023-06-10T00:53:50;6.80;;;6.20;;
18726;SDS011;9492;51.888;5.186;2023-06-10T00:56:16;7.23;;;6.53;;
18726;SDS011;9492;51.888;5.186;2023-06-10T00:58:42;7.47;;;6.70;;
18726;SDS011;9492;51.888;5.186;2023-06-10T01:01:08;7.87;;;7.07;;
18726;SDS011;9492;51.888;5.186;2023-06-10T01:03:36;9.10;;;6.97;;
18726;SDS011;9492;51.888;5.186;2023-06-10T01:09:06;7.60;;;6.90;;
18726;SDS011;9492;51.888;5.186;2023-06-10T01:11:41;8.37;;;6.40;;
18726;SDS011;9492;51.888;5.186;2023-06-10T01:14:09;9.07;;;6.77;;
18726;SDS011;9492;51.888;5.186;2023-06-10T01:16:37;7.00;;;6.30;;
18726;SDS011;9492;51.888;5.186;2023-06-10T01:19:05;9.83;;;6.83;;
18726;SDS011;9492;51.888;5.186;2023-06-10T01:21:32;8.40;;;6.77;;
18726;SDS011;9492;51.888;5.186;2023-06-10T01:23:58;6.90;;;6.20;;
18726;SDS011;9492;51.888;5.186;2023-06-10T01:26:26;7.77;;;6.97;;
18726;SDS011;9492;51.888;5.186;2023-06-10T01:28:57;6.77;;;5.90;;
18726;SDS011;9492;51.888;5.186;2023-06-10T01:31:31;7.37;;;6.67;;
18726;SDS011;9492;51.888;5.186;2023-06-10T01:34:01;8.70;;;6.97;;
18726;SDS011;9492;51.888;5.186;2023-06-10T01:36:28;7.43;;;6.73;;
18726;SDS011;9492;51.888;5.186;2023-06-10T01:38:54;7.60;;;6.80;;
18726;SDS011;9492;51.888;5.186;2023-06-10T01:41:21;8.30;;;7.43;;
18726;SDS011;9492;51.888;5.186;2023-06-10T01:43:48;7.70;;;7.00;;
18726;SDS011;9492;51.888;5.186;2023-06-10T01:46:14;8.23;;;6.87;;
18726;SDS011;9492;51.888;5.186;2023-06-10T01:48:44;7.00;;;6.13;;
18726;SDS011;9492;51.888;5.186;2023-06-10T01:51:10;8.90;;;7.20;;
18726;SDS011;9492;51.888;5.186;2023-06-10T01:53:36;8.70;;;7.80;;
18726;SDS011;9492;51.888;5.186;2023-06-10T01:56:03;8.53;;;6.47;;
18726;SDS011;9492;51.888;5.186;2023-06-10T01:58:29;7.23;;;6.53;;
18726;SDS011;9492;51.888;5.186;2023-06-10T02:00:55;9.83;;;7.13;;
18726;SDS011;9492;51.888;5.186;2023-06-10T02:03:22;7.90;;;7.10;;
18726;SDS011;9492;51.888;5.186;2023-06-10T02:05:48;8.00;;;7.23;;
18726;SDS011;9492;51.888;5.186;2023-06-10T02:08:15;8.53;;;7.77;;
18726;SDS011;9492;51.888;5.186;2023-06-10T02:10:41;8.57;;;6.77;;
18726;SDS011;9492;51.888;5.186;2023-06-10T02:13:07;8.03;;;7.23;;
18726;SDS011;9492;51.888;5.186;2023-06-10T02:15:33;8.17;;;7.37;;
18726;SDS011;9492;51.888;5.186;2023-06-10T02:18:00;8.27;;;7.00;;
18726;SDS011;9492;51.888;5.186;2023-06-10T02:20:34;7.13;;;6.43;;
18726;SDS011;9492;51.888;5.186;2023-06-10T02:23:00;10.60;;;6.63;;
18726;SDS011;9492;51.888;5.186;2023-06-10T02:25:26;7.63;;;6.83;;
18726;SDS011;9492;51.888;5.186;2023-06-10T02:27:52;7.23;;;6.53;;
18726;SDS011;9492;51.888;5.186;2023-06-10T02:30:18;6.70;;;6.07;;
18726;SDS011;9492;51.888;5.186;2023-06-10T02:32:44;7.17;;;6.47;;
18726;SDS011;9492;51.888;5.186;2023-06-10T02:35:16;7.37;;;6.77;;
18726;SDS011;9492;51.888;5.186;2023-06-10T02:37:42;7.37;;;6.57;;
18726;SDS011;9492;51.888;5.186;2023-06-10T02:40:08;7.17;;;6.43;;
18726;SDS011;9492;51.888;5.186;2023-06-10T02:42:35;7.83;;;7.13;;
18726;SDS011;9492;51.888;5.186;2023-06-10T02:45:01;7.60;;;6.80;;
18726;SDS011;9492;51.888;5.186;2023-06-10T02:47:27;7.40;;;6.50;;
18726;SDS011;9492;51.888;5.186;2023-06-10T02:52:22;7.17;;;6.47;;
18726;SDS011;9492;51.888;5.186;2023-06-10T02:54:48;8.00;;;7.13;;
18726;SDS011;9492;51.888;5.186;2023-06-10T02:57:14;7.30;;;6.40;;
18726;SDS011;9492;51.888;5.186;2023-06-10T02:59:40;7.20;;;6.53;;
18726;SDS011;9492;51.888;5.186;2023-06-10T03:02:06;8.50;;;6.47;;
18726;SDS011;9492;51.888;5.186;2023-06-10T03:04:33;7.93;;;7.23;;
18726;SDS011;9492;51.888;5.186;2023-06-10T03:06:59;7.33;;;6.27;;
18726;SDS011;9492;51.888;5.186;2023-06-10T03:09:28;8.17;;;6.87;;
18726;SDS011;9492;51.888;5.186;2023-06-10T03:11:54;8.77;;;6.73;;
18726;SDS011;9492;51.888;5.186;2023-06-10T03:14:20;8.57;;;6.47;;
18726;SDS011;9492;51.888;5.186;2023-06-10T03:16:46;7.10;;;6.23;;
18726;SDS011;9492;51.888;5.186;2023-06-10T03:19:13;8.13;;;6.43;;
18726;SDS011;9492;51.888;5.186;2023-06-10T03:21:39;6.83;;;6.23;;
18726;SDS011;9492;51.888;5.186;2023-06-10T03:24:06;7.67;;;6.70;;
18726;SDS011;9492;51.888;5.186;2023-06-10T03:26:32;7.37;;;6.30;;
18726;SDS011;9492;51.888;5.186;2023-06-10T03:28:58;8.60;;;6.67;;
18726;SDS011;9492;51.888;5.186;2023-06-10T03:31:25;6.70;;;6.07;;
18726;SDS011;9492;51.888;5.186;2023-06-10T03:33:51;7.03;;;6.33;;
18726;SDS011;9492;51.888;5.186;2023-06-10T03:36:17;6.90;;;6.17;;
18726;SDS011;9492;51.888;5.186;2023-06-10T03:38:43;7.33;;;6.33;;
18726;SDS011;9492;51.888;5.186;2023-06-10T03:41:09;10.13;;;6.40;;
18726;SDS011;9492;51.888;5.186;2023-06-10T03:43:37;6.37;;;5.77;;
18726;SDS011;9492;51.888;5.186;2023-06-10T03:46:05;8.47;;;5.90;;
18726;SDS011;9492;51.888;5.186;2023-06-10T03:48:31;8.67;;;6.23;;
18726;SDS011;9492;51.888;5.186;2023-06-10T03:50:58;7.30;;;5.90;;
18726;SDS011;9492;51.888;5.186;2023-06-10T03:53:24;6.87;;;6.00;;
18726;SDS011;9492;51.888;5.186;2023-06-10T03:55:50;7.70;;;6.27;;
18726;SDS011;9492;51.888;5.186;2023-06-10T03:58:16;8.23;;;6.37;;
18726;SDS011;9492;51.888;5.186;2023-06-10T04:00:44;6.83;;;6.17;;
18726;SDS011;9492;51.888;5.186;2023-06-10T04:03:10;6.87;;;6.27;;
18726;SDS011;9492;51.888;5.186;2023-06-10T04:05:39;6.67;;;5.90;;
18726;SDS011;9492;51.888;5.186;2023-06-10T04:08:06;9.47;;;6.47;;
18726;SDS011;9492;51.888;5.186;2023-06-10T04:10:32;7.60;;;6.73;;
18726;SDS011;9492;51.888;5.186;2023-06-10T04:12:58;7.13;;;6.43;;
18726;SDS011;9492;51.888;5.186;2023-06-10T04:15:25;7.33;;;6.10;;
18726;SDS011;9492;51.888;5.186;2023-06-10T04:17:51;8.00;;;6.03;;
18726;SDS011;9492;51.888;5.186;2023-06-10T04:20:17;6.53;;;5.83;;
18726;SDS011;9492;51.888;5.186;2023-06-10T04:22:43;7.10;;;6.30;;
18726;SDS011;9492;51.888;5.186;2023-06-10T04:25:09;7.70;;;6.37;;
18726;SDS011;9492;51.888;5.186;2023-06-10T04:27:36;7.57;;;6.03;;
18726;SDS011;9492;51.888;5.186;2023-06-10T04:30:02;7.80;;;6.20;;
18726;SDS011;9492;51.888;5.186;2023-06-10T04:32:29;8.83;;;6.73;;
18726;SDS011;9492;51.888;5.186;2023-06-10T04:34:55;8.53;;;6.20;;
18726;SDS011;9492;51.888;5.186;2023-06-10T04:37:21;7.00;;;5.57;;
18726;SDS011;9492;51.888;5.186;2023-06-10T04:39:47;9.73;;;5.83;;
18726;SDS011;9492;51.888;5.186;2023-06-10T04:42:13;8.73;;;5.90;;
18726;SDS011;9492;51.888;5.186;2023-06-10T04:44:40;7.27;;;5.40;;
18726;SDS011;9492;51.888;5.186;2023-06-10T04:47:06;8.20;;;6.60;;
18726;SDS011;9492;51.888;5.186;2023-06-10T04:49:33;7.13;;;6.10;;
18726;SDS011;9492;51.888;5.186;2023-06-10T04:52:00;7.30;;;5.97;;
18726;SDS011;9492;51.888;5.186;2023-06-10T04:54:26;6.60;;;5.43;;
18726;SDS011;9492;51.888;5.186;2023-06-10T04:56:52;8.50;;;5.93;;
18726;SDS011;9492;51.888;5.186;2023-06-10T04:59:19;6.17;;;5.40;;
18726;SDS011;9492;51.888;5.186;2023-06-10T05:01:45;8.60;;;6.20;;
18726;SDS011;9492;51.888;5.186;2023-06-10T05:04:11;7.03;;;5.93;;
18726;SDS011;9492;51.888;5.186;2023-06-10T05:06:37;10.07;;;6.37;;
18726;SDS011;9492;51.888;5.186;2023-06-10T05:09:03;10.33;;;6.80;;
18726;SDS011;9492;51.888;5.186;2023-06-10T05:11:29;8.87;;;6.30;;
18726;SDS011;9492;51.888;5.186;2023-06-10T05:13:55;9.53;;;6.47;;
18726;SDS011;9492;51.888;5.186;2023-06-10T05:16:22;7.07;;;5.50;;
18726;SDS011;9492;51.888;5.186;2023-06-10T05:18:48;11.73;;;6.73;;
18726;SDS011;9492;51.888;5.186;2023-06-10T05:21:15;5.93;;;5.27;;
18726;SDS011;9492;51.888;5.186;2023-06-10T05:23:42;7.77;;;5.40;;
18726;SDS011;9492;51.888;5.186;2023-06-10T05:26:08;7.00;;;5.23;;
18726;SDS011;9492;51.888;5.186;2023-06-10T05:28:34;7.33;;;5.90;;
18726;SDS011;9492;51.888;5.186;2023-06-10T05:31:00;7.13;;;5.50;;
18726;SDS011;9492;51.888;5.186;2023-06-10T05:33:26;5.57;;;5.07;;
18726;SDS011;9492;51.888;5.186;2023-06-10T05:35:52;7.73;;;5.93;;
18726;SDS011;9492;51.888;5.186;2023-06-10T05:38:18;5.47;;;4.97;;
18726;SDS011;9492;51.888;5.186;2023-06-10T05:40:44;6.07;;;5.43;;
18726;SDS011;9492;51.888;5.186;2023-06-10T05:43:10;8.87;;;5.53;;
18726;SDS011;9492;51.888;5.186;2023-06-10T05:45:36;7.60;;;5.40;;
18726;SDS011;9492;51.888;5.186;2023-06-10T05:48:03;8.27;;;4.87;;
18726;SDS011;9492;51.888;5.186;2023-06-10T05:50:29;5.47;;;4.93;;
18726;SDS011;9492;51.888;5.186;2023-06-10T05:52:55;6.73;;;5.23;;
18726;SDS011;9492;51.888;5.186;2023-06-10T05:55:21;5.28;;;4.60;;
18726;SDS011;9492;51.888;5.186;2023-06-10T05:57:47;7.97;;;5.43;;
18726;SDS011;9492;51.888;5.186;2023-06-10T06:00:13;5.75;;;5.15;;
18726;SDS011;9492;51.888;5.186;2023-06-10T06:02:41;7.38;;;5.22;;
18726;SDS011;9492;51.888;5.186;2023-06-10T06:05:07;8.70;;;6.43;;
18726;SDS011;9492;51.888;5.186;2023-06-10T06:07:33;6.20;;;4.82;;
18726;SDS011;9492;51.888;5.186;2023-06-10T06:09:59;6.28;;;4.75;;
18726;SDS011;9492;51.888;5.186;2023-06-10T06:12:25;6.75;;;4.82;;
18726;SDS011;9492;51.888;5.186;2023-06-10T06:14:51;8.13;;;5.93;;
18726;SDS011;9492;51.888;5.186;2023-06-10T06:17:17;7.88;;;4.85;;
18726;SDS011;9492;51.888;5.186;2023-06-10T06:19:43;5.63;;;5.03;;
18726;SDS011;9492;51.888;5.186;2023-06-10T06:22:12;5.22;;;4.50;;
18726;SDS011;9492;51.888;5.186;2023-06-10T06:24:38;7.32;;;5.13;;
18726;SDS011;9492;51.888;5.186;2023-06-10T06:27:04;5.88;;;4.40;;
18726;SDS011;9492;51.888;5.186;2023-06-10T06:29:31;6.63;;;4.57;;
18726;SDS011;9492;51.888;5.186;2023-06-10T06:31:58;5.80;;;4.63;;
18726;SDS011;9492;51.888;5.186;2023-06-10T06:34:24;7.32;;;5.05;;
18726;SDS011;9492;51.888;5.186;2023-06-10T06:36:50;9.10;;;5.03;;
18726;SDS011;9492;51.888;5.186;2023-06-10T06:39:16;4.93;;;4.43;;
18726;SDS011;9492;51.888;5.186;2023-06-10T06:41:42;7.65;;;5.65;;
18726;SDS011;9492;51.888;5.186;2023-06-10T06:44:08;7.00;;;4.70;;
18726;SDS011;9492;51.888;5.186;2023-06-10T06:46:34;5.80;;;4.65;;
18726;SDS011;9492;51.888;5.186;2023-06-10T06:49:00;5.03;;;4.30;;
18726;SDS011;9492;51.888;5.186;2023-06-10T06:51:26;6.78;;;4.70;;
18726;SDS011;9492;51.888;5.186;2023-06-10T06:53:52;6.63;;;5.72;;
18726;SDS011;9492;51.888;5.186;2023-06-10T06:56:21;5.65;;;5.05;;
18726;SDS011;9492;51.888;5.186;2023-06-10T06:58:47;8.90;;;5.47;;
18726;SDS011;9492;51.888;5.186;2023-06-10T07:01:13;9.07;;;5.28;;
18726;SDS011;9492;51.888;5.186;2023-06-10T07:03:40;7.57;;;4.60;;
18726;SDS011;9492;51.888;5.186;2023-06-10T07:06:06;8.40;;;5.35;;
18726;SDS011;9492;51.888;5.186;2023-06-10T07:08:32;6.30;;;5.45;;
18726;SDS011;9492;51.888;5.186;2023-06-10T07:10:58;5.75;;;4.35;;
18726;SDS011;9492;51.888;5.186;2023-06-10T07:13:24;5.80;;;4.80;;
18726;SDS011;9492;51.888;5.186;2023-06-10T07:15:50;5.05;;;4.47;;
18726;SDS011;9492;51.888;5.186;2023-06-10T07:18:16;7.13;;;4.85;;
18726;SDS011;9492;51.888;5.186;2023-06-10T07:20:42;7.13;;;4.88;;
18726;SDS011;9492;51.888;5.186;2023-06-10T07:23:08;6.00;;;4.15;;
18726;SDS011;9492;51.888;5.186;2023-06-10T07:25:34;6.07;;;5.40;;
18726;SDS011;9492;51.888;5.186;2023-06-10T07:28:00;7.75;;;5.85;;
18726;SDS011;9492;51.888;5.186;2023-06-10T07:30:27;5.22;;;4.47;;
18726;SDS011;9492;51.888;5.186;2023-06-10T07:32:54;6.60;;;4.53;;
18726;SDS011;9492;51.888;5.186;2023-06-10T07:35:20;6.35;;;4.32;;
18726;SDS011;9492;51.888;5.186;2023-06-10T07:37:46;5.93;;;5.03;;
18726;SDS011;9492;51.888;5.186;2023-06-10T07:40:12;10.40;;;4.68;;
18726;SDS011;9492;51.888;5.186;2023-06-10T07:42:38;7.90;;;5.03;;
18726;SDS011;9492;51.888;5.186;2023-06-10T07:45:05;9.10;;;5.95;;
18726;SDS011;9492;51.888;5.186;2023-06-10T07:47:33;7.80;;;5.40;;
18726;SDS011;9492;51.888;5.186;2023-06-10T07:50:00;5.05;;;4.55;;
18726;SDS011;9492;51.888;5.186;2023-06-10T07:52:26;9.77;;;5.68;;
18726;SDS011;9492;51.888;5.186;2023-06-10T07:54:53;6.18;;;4.78;;
18726;SDS011;9492;51.888;5.186;2023-06-10T07:57:20;8.50;;;5.30;;
18726;SDS011;9492;51.888;5.186;2023-06-10T07:59:46;5.93;;;4.97;;
18726;SDS011;9492;51.888;5.186;2023-06-10T08:02:13;14.15;;;5.55;;
18726;SDS011;9492;51.888;5.186;2023-06-10T08:04:39;9.45;;;5.65;;
18726;SDS011;9492;51.888;5.186;2023-06-10T08:07:05;6.25;;;4.80;;
18726;SDS011;9492;51.888;5.186;2023-06-10T08:09:31;6.22;;;5.63;;
18726;SDS011;9492;51.888;5.186;2023-06-10T08:11:58;7.88;;;5.13;;
18726;SDS011;9492;51.888;5.186;2023-06-10T08:14:29;6.00;;;5.40;;
18726;SDS011;9492;51.888;5.186;2023-06-10T08:16:55;8.82;;;5.45;;
18726;SDS011;9492;51.888;5.186;2023-06-10T08:19:21;5.97;;;4.90;;
18726;SDS011;9492;51.888;5.186;2023-06-10T08:21:47;5.68;;;5.13;;
18726;SDS011;9492;51.888;5.186;2023-06-10T08:24:13;8.60;;;5.13;;
18726;SDS011;9492;51.888;5.186;2023-06-10T08:26:41;6.57;;;5.68;;
18726;SDS011;9492;51.888;5.186;2023-06-10T08:29:07;8.48;;;5.03;;
18726;SDS011;9492;51.888;5.186;2023-06-10T08:31:33;7.30;;;5.07;;
18726;SDS011;9492;51.888;5.186;2023-06-10T08:33:59;6.70;;;5.40;;
18726;SDS011;9492;51.888;5.186;2023-06-10T08:36:25;7.38;;;5.30;;
18726;SDS011;9492;51.888;5.186;2023-06-10T08:38:51;5.70;;;4.63;;
18726;SDS011;9492;51.888;5.186;2023-06-10T08:41:17;5.80;;;4.65;;
18726;SDS011;9492;51.888;5.186;2023-06-10T08:43:46;9.02;;;5.18;;
18726;SDS011;9492;51.888;5.186;2023-06-10T08:46:13;7.85;;;5.47;;
18726;SDS011;9492;51.888;5.186;2023-06-10T08:48:43;4.97;;;4.32;;
18726;SDS011;9492;51.888;5.186;2023-06-10T08:51:10;6.72;;;5.05;;
18726;SDS011;9492;51.888;5.186;2023-06-10T08:53:37;5.50;;;4.70;;
18726;SDS011;9492;51.888;5.186;2023-06-10T08:56:04;6.40;;;4.75;;
18726;SDS011;9492;51.888;5.186;2023-06-10T08:58:30;5.60;;;4.68;;
18726;SDS011;9492;51.888;5.186;2023-06-10T09:01:00;9.85;;;5.95;;
18726;SDS011;9492;51.888;5.186;2023-06-10T09:03:27;8.93;;;5.57;;
18726;SDS011;9492;51.888;5.186;2023-06-10T09:05:54;5.80;;;4.97;;
18726;SDS011;9492;51.888;5.186;2023-06-10T09:08:21;6.18;;;5.35;;
18726;SDS011;9492;51.888;5.186;2023-06-10T09:10:48;7.15;;;4.85;;
18726;SDS011;9492;51.888;5.186;2023-06-10T09:13:14;8.25;;;5.82;;
18726;SDS011;9492;51.888;5.186;2023-06-10T09:15:43;8.13;;;4.47;;
18726;SDS011;9492;51.888;5.186;2023-06-10T09:18:10;7.53;;;5.55;;
18726;SDS011;9492;51.888;5.186;2023-06-10T09:20:38;10.45;;;6.43;;
18726;SDS011;9492;51.888;5.186;2023-06-10T09:23:05;8.13;;;5.55;;
18726;SDS011;9492;51.888;5.186;2023-06-10T09:25:35;5.00;;;4.45;;
18726;SDS011;9492;51.888;5.186;2023-06-10T09:28:04;6.47;;;4.97;;
18726;SDS011;9492;51.888;5.186;2023-06-10T09:30:34;5.90;;;5.30;;
18726;SDS011;9492;51.888;5.186;2023-06-10T09:33:02;6.13;;;4.57;;
18726;SDS011;9492;51.888;5.186;2023-06-10T09:35:29;8.05;;;4.80;;
18726;SDS011;9492;51.888;5.186;2023-06-10T09:37:56;6.45;;;5.32;;
18726;SDS011;9492;51.888;5.186;2023-06-10T09:40:24;6.50;;;5.75;;
18726;SDS011;9492;51.888;5.186;2023-06-10T09:42:58;7.90;;;5.50;;
18726;SDS011;9492;51.888;5.186;2023-06-10T09:45:28;9.57;;;4.47;;
18726;SDS011;9492;51.888;5.186;2023-06-10T09:47:55;5.38;;;4.18;;
18726;SDS011;9492;51.888;5.186;2023-06-10T09:50:21;5.75;;;5.13;;
18726;SDS011;9492;51.888;5.186;2023-06-10T09:52:47;5.55;;;4.57;;
18726;SDS011;9492;51.888;5.186;2023-06-10T09:55:13;10.95;;;5.15;;
18726;SDS011;9492;51.888;5.186;2023-06-10T09:57:39;7.47;;;4.88;;
18726;SDS011;9492;51.888;5.186;2023-06-10T10:00:07;5.53;;;5.03;;
18726;SDS011;9492;51.888;5.186;2023-06-10T10:02:43;5.25;;;4.32;;
18726;SDS011;9492;51.888;5.186;2023-06-10T10:05:12;5.93;;;4.30;;
18726;SDS011;9492;51.888;5.186;2023-06-10T10:07:41;4.22;;;3.83;;
18726;SDS011;9492;51.888;5.186;2023-06-10T10:10:08;9.55;;;5.22;;
18726;SDS011;9492;51.888;5.186;2023-06-10T10:12:35;5.13;;;4.40;;
18726;SDS011;9492;51.888;5.186;2023-06-10T10:15:01;7.05;;;4.10;;
18726;SDS011;9492;51.888;5.186;2023-06-10T10:17:27;6.05;;;5.15;;
18726;SDS011;9492;51.888;5.186;2023-06-10T10:19:54;5.32;;;4.18;;
18726;SDS011;9492;51.888;5.186;2023-06-10T10:22:26;7.38;;;4.50;;
18726;SDS011;9492;51.888;5.186;2023-06-10T10:24:57;7.05;;;4.60;;
18726;SDS011;9492;51.888;5.186;2023-06-10T10:27:33;5.13;;;4.05;;
18726;SDS011;9492;51.888;5.186;2023-06-10T10:30:01;4.57;;;3.90;;
18726;SDS011;9492;51.888;5.186;2023-06-10T10:32:50;5.80;;;5.00;;
18726;SDS011;9492;51.888;5.186;2023-06-10T10:35:19;5.18;;;4.65;;
18726;SDS011;9492;51.888;5.186;2023-06-10T10:37:48;4.90;;;4.43;;
18726;SDS011;9492;51.888;5.186;2023-06-10T10:40:14;8.48;;;4.72;;
18726;SDS011;9492;51.888;5.186;2023-06-10T10:42:40;7.22;;;4.90;;
18726;SDS011;9492;51.888;5.186;2023-06-10T10:45:07;6.32;;;5.38;;
18726;SDS011;9492;51.888;5.186;2023-06-10T10:47:34;5.05;;;4.65;;
18726;SDS011;9492;51.888;5.186;2023-06-10T10:50:03;6.18;;;3.95;;
18726;SDS011;9492;51.888;5.186;2023-06-10T10:53:11;4.97;;;4.47;;
18726;SDS011;9492;51.888;5.186;2023-06-10T10:55:30;6.13;;;3.55;;
18726;SDS011;9492;51.888;5.186;2023-06-10T10:58:06;5.45;;;4.80;;
18726;SDS011;9492;51.888;5.186;2023-06-10T11:00:37;4.93;;;4.40;;
18726;SDS011;9492;51.888;5.186;2023-06-10T11:07:58;7.75;;;4.50;;
18726;SDS011;9492;51.888;5.186;2023-06-10T11:10:34;4.35;;;3.95;;
18726;SDS011;9492;51.888;5.186;2023-06-10T11:13:13;6.72;;;4.55;;
18726;SDS011;9492;51.888;5.186;2023-06-10T11:15:42;4.40;;;4.00;;
18726;SDS011;9492;51.888;5.186;2023-06-10T11:18:24;5.78;;;4.60;;
18726;SDS011;9492;51.888;5.186;2023-06-10T11:20:52;5.10;;;4.18;;
18726;SDS011;9492;51.888;5.186;2023-06-10T11:26:15;4.20;;;3.80;;
18726;SDS011;9492;51.888;5.186;2023-06-10T11:29:00;5.88;;;4.57;;
18726;SDS011;9492;51.888;5.186;2023-06-10T11:31:38;5.35;;;4.05;;
18726;SDS011;9492;51.888;5.186;2023-06-10T11:34:05;3.92;;;3.58;;
18726;SDS011;9492;51.888;5.186;2023-06-10T11:36:32;4.57;;;4.05;;
18726;SDS011;9492;51.888;5.186;2023-06-10T11:38:59;4.97;;;4.53;;
18726;SDS011;9492;51.888;5.186;2023-06-10T11:41:25;5.72;;;4.25;;
18726;SDS011;9492;51.888;5.186;2023-06-10T11:43:52;5.60;;;4.97;;
18726;SDS011;9492;51.888;5.186;2023-06-10T11:46:19;5.35;;;4.30;;
18726;SDS011;9492;51.888;5.186;2023-06-10T11:48:51;5.93;;;4.63;;
18726;SDS011;9492;51.888;5.186;2023-06-10T11:51:18;7.15;;;4.05;;
18726;SDS011;9492;51.888;5.186;2023-06-10T11:53:45;6.45;;;4.80;;
18726;SDS011;9492;51.888;5.186;2023-06-10T11:56:11;4.32;;;3.58;;
18726;SDS011;9492;51.888;5.186;2023-06-10T11:58:37;7.15;;;3.85;;
18726;SDS011;9492;51.888;5.186;2023-06-10T12:01:05;5.65;;;4.65;;
18726;SDS011;9492;51.888;5.186;2023-06-10T12:03:37;6.10;;;4.47;;
18726;SDS011;9492;51.888;5.186;2023-06-10T12:06:04;4.43;;;3.92;;
18726;SDS011;9492;51.888;5.186;2023-06-10T12:08:31;5.53;;;4.70;;
18726;SDS011;9492;51.888;5.186;2023-06-10T12:10:57;6.60;;;4.85;;
18726;SDS011;9492;51.888;5.186;2023-06-10T12:13:27;6.13;;;4.72;;
18726;SDS011;9492;51.888;5.186;2023-06-10T12:15:54;5.43;;;4.28;;
18726;SDS011;9492;51.888;5.186;2023-06-10T12:18:22;7.70;;;3.97;;
18726;SDS011;9492;51.888;5.186;2023-06-10T12:20:49;5.05;;;4.10;;
18726;SDS011;9492;51.888;5.186;2023-06-10T12:23:16;5.95;;;4.15;;
18726;SDS011;9492;51.888;5.186;2023-06-10T12:25:52;5.10;;;4.70;;
18726;SDS011;9492;51.888;5.186;2023-06-10T12:28:28;4.60;;;4.10;;
18726;SDS011;9492;51.888;5.186;2023-06-10T12:31:07;6.47;;;4.68;;
18726;SDS011;9492;51.888;5.186;2023-06-10T12:33:33;4.78;;;4.32;;
18726;SDS011;9492;51.888;5.186;2023-06-10T12:35:59;5.93;;;4.57;;
18726;SDS011;9492;51.888;5.186;2023-06-10T12:38:26;7.20;;;4.03;;
18726;SDS011;9492;51.888;5.186;2023-06-10T12:40:52;5.03;;;4.28;;
18726;SDS011;9492;51.888;5.186;2023-06-10T12:43:27;4.40;;;3.97;;
18726;SDS011;9492;51.888;5.186;2023-06-10T12:45:53;5.18;;;4.45;;
18726;SDS011;9492;51.888;5.186;2023-06-10T12:48:24;7.30;;;4.32;;
18726;SDS011;9492;51.888;5.186;2023-06-10T12:50:54;4.70;;;4.15;;
18726;SDS011;9492;51.888;5.186;2023-06-10T12:53:21;8.02;;;4.70;;
18726;SDS011;9492;51.888;5.186;2023-06-10T12:55:48;7.13;;;5.13;;
18726;SDS011;9492;51.888;5.186;2023-06-10T12:58:14;5.07;;;4.57;;
18726;SDS011;9492;51.888;5.186;2023-06-10T13:00:40;4.78;;;4.30;;
18726;SDS011;9492;51.888;5.186;2023-06-10T13:03:07;5.18;;;4.70;;
18726;SDS011;9492;51.888;5.186;2023-06-10T13:05:34;6.68;;;5.22;;
18726;SDS011;9492;51.888;5.186;2023-06-10T13:08:02;5.20;;;4.38;;
18726;SDS011;9492;51.888;5.186;2023-06-10T13:10:28;6.10;;;4.18;;
18726;SDS011;9492;51.888;5.186;2023-06-10T13:12:54;6.68;;;4.03;;
18726;SDS011;9492;51.888;5.186;2023-06-10T13:15:21;5.28;;;4.80;;
18726;SDS011;9492;51.888;5.186;2023-06-10T13:17:47;4.97;;;4.57;;
18726;SDS011;9492;51.888;5.186;2023-06-10T13:20:14;4.97;;;4.15;;
18726;SDS011;9492;51.888;5.186;2023-06-10T13:22:41;5.57;;;4.22;;
18726;SDS011;9492;51.888;5.186;2023-06-10T13:25:07;5.10;;;4.60;;
18726;SDS011;9492;51.888;5.186;2023-06-10T13:27:34;5.78;;;4.97;;
18726;SDS011;9492;51.888;5.186;2023-06-10T13:30:00;5.15;;;4.18;;
18726;SDS011;9492;51.888;5.186;2023-06-10T13:32:26;4.57;;;4.10;;
18726;SDS011;9492;51.888;5.186;2023-06-10T13:34:52;6.55;;;4.60;;
18726;SDS011;9492;51.888;5.186;2023-06-10T13:37:19;5.63;;;4.55;;
18726;SDS011;9492;51.888;5.186;2023-06-10T13:39:46;5.82;;;4.60;;
18726;SDS011;9492;51.888;5.186;2023-06-10T13:42:16;5.05;;;4.55;;
18726;SDS011;9492;51.888;5.186;2023-06-10T13:44:42;6.07;;;5.07;;
18726;SDS011;9492;51.888;5.186;2023-06-10T13:47:08;5.15;;;4.72;;
18726;SDS011;9492;51.888;5.186;2023-06-10T13:49:34;4.75;;;4.32;;
18726;SDS011;9492;51.888;5.186;2023-06-10T13:52:01;6.03;;;4.60;;
18726;SDS011;9492;51.888;5.186;2023-06-10T13:54:29;7.10;;;4.63;;
18726;SDS011;9492;51.888;5.186;2023-06-10T13:56:55;5.65;;;4.40;;
18726;SDS011;9492;51.888;5.186;2023-06-10T13:59:21;5.50;;;4.95;;
18726;SDS011;9492;51.888;5.186;2023-06-10T14:01:47;5.03;;;4.20;;
18726;SDS011;9492;51.888;5.186;2023-06-10T14:04:13;5.97;;;4.60;;
18726;SDS011;9492;51.888;5.186;2023-06-10T14:06:39;4.45;;;4.05;;
18726;SDS011;9492;51.888;5.186;2023-06-10T14:09:06;6.00;;;5.10;;
18726;SDS011;9492;51.888;5.186;2023-06-10T14:11:32;4.95;;;4.45;;
18726;SDS011;9492;51.888;5.186;2023-06-10T14:13:58;5.32;;;4.75;;
18726;SDS011;9492;51.888;5.186;2023-06-10T14:16:27;5.18;;;4.68;;
18726;SDS011;9492;51.888;5.186;2023-06-10T14:18:53;6.07;;;4.13;;
18726;SDS011;9492;51.888;5.186;2023-06-10T14:21:19;8.75;;;4.15;;
18726;SDS011;9492;51.888;5.186;2023-06-10T14:23:45;10.50;;;4.90;;
18726;SDS011;9492;51.888;5.186;2023-06-10T14:26:11;4.30;;;3.90;;
18726;SDS011;9492;51.888;5.186;2023-06-10T14:28:38;5.28;;;4.78;;
18726;SDS011;9492;51.888;5.186;2023-06-10T14:31:04;5.13;;;4.07;;
18726;SDS011;9492;51.888;5.186;2023-06-10T14:33:30;6.03;;;4.75;;
18726;SDS011;9492;51.888;5.186;2023-06-10T14:35:56;5.00;;;4.53;;
18726;SDS011;9492;51.888;5.186;2023-06-10T14:38:22;4.75;;;3.90;;
18726;SDS011;9492;51.888;5.186;2023-06-10T14:40:48;4.47;;;4.13;;
18726;SDS011;9492;51.888;5.186;2023-06-10T14:43:14;4.60;;;4.20;;
18726;SDS011;9492;51.888;5.186;2023-06-10T14:45:40;4.78;;;4.35;;
18726;SDS011;9492;51.888;5.186;2023-06-10T14:48:07;4.70;;;4.30;;
18726;SDS011;9492;51.888;5.186;2023-06-10T14:50:39;4.60;;;4.18;;
18726;SDS011;9492;51.888;5.186;2023-06-10T14:53:07;4.47;;;4.03;;
18726;SDS011;9492;51.888;5.186;2023-06-10T14:55:33;4.78;;;3.95;;
18726;SDS011;9492;51.888;5.186;2023-06-10T14:58:00;5.43;;;4.05;;
18726;SDS011;9492;51.888;5.186;2023-06-10T15:00:26;7.50;;;4.07;;
18726;SDS011;9492;51.888;5.186;2023-06-10T15:02:52;5.00;;;3.78;;
18726;SDS011;9492;51.888;5.186;2023-06-10T15:05:20;4.65;;;4.05;;
18726;SDS011;9492;51.888;5.186;2023-06-10T15:07:47;3.92;;;3.60;;
18726;SDS011;9492;51.888;5.186;2023-06-10T15:10:15;4.18;;;3.67;;
18726;SDS011;9492;51.888;5.186;2023-06-10T15:12:43;3.97;;;3.58;;
18726;SDS011;9492;51.888;5.186;2023-06-10T15:15:09;10.00;;;8.30;;